createdAt,value
2019-04-20T00:00:56.412Z,4.83
2019-04-20T00:03:34.365Z,4.73
2019-04-20T00:05:57.407Z,5.20
2019-04-20T00:08:31.149Z,4.80
2019-04-20T00:11:07.383Z,5.30
2019-04-20T00:13:40.764Z,5.07
2019-04-20T00:16:01.996Z,5.00
2019-04-20T00:18:39.257Z,4.80
2019-04-20T00:21:20.882Z,5.27
2019-04-20T00:23:53.530Z,5.07
2019-04-20T00:26:59.315Z,5.03
2019-04-20T00:29:17.649Z,5.57
2019-04-20T00:31:45.737Z,4.70
2019-04-20T00:34:08.983Z,5.30
2019-04-20T00:36:34.910Z,4.90
2019-04-20T00:39:09.471Z,5.30
2019-04-20T00:41:47.238Z,5.43
2019-04-20T00:44:13.351Z,6.00
2019-04-20T00:46:51.263Z,5.50
2019-04-20T00:49:27.606Z,5.43
2019-04-20T00:52:15.256Z,5.60
2019-04-20T00:54:16.044Z,5.37
2019-04-20T00:56:46.021Z,5.60
2019-04-20T00:59:29.039Z,5.67
2019-04-20T01:02:03.668Z,5.30
2019-04-20T01:04:37.853Z,4.77
2019-04-20T01:07:21.823Z,5.30
2019-04-20T01:10:04.697Z,5.40
2019-04-20T01:12:38.340Z,5.37
2019-04-20T01:15:13.169Z,5.80
2019-04-20T01:17:41.685Z,5.73
2019-04-20T01:20:11.048Z,5.50
2019-04-20T01:22:50.985Z,5.57
2019-04-20T01:25:22.069Z,5.33
2019-04-20T01:28:06.608Z,5.73
2019-04-20T01:30:25.328Z,6.00
2019-04-20T01:32:59.888Z,5.83
2019-04-20T01:35:35.529Z,6.23
2019-04-20T01:38:09.654Z,5.80
2019-04-20T01:40:21.620Z,5.73
2019-04-20T01:42:51.297Z,5.80
2019-04-20T01:45:27.318Z,5.93
2019-04-20T01:47:54.978Z,5.73
2019-04-20T01:50:27.692Z,5.77
2019-04-20T01:53:09.286Z,6.07
2019-04-20T01:56:00.009Z,6.10
2019-04-20T01:58:25.412Z,5.57
2019-04-20T02:01:14.960Z,5.67
2019-04-20T02:03:52.493Z,6.13
2019-04-20T02:06:23.199Z,5.90
2019-04-20T02:08:58.399Z,5.97
2019-04-20T02:11:29.467Z,5.63
2019-04-20T02:13:58.745Z,5.90
2019-04-20T02:16:33.618Z,5.97
2019-04-20T02:19:13.853Z,6.07
2019-04-20T02:21:47.610Z,6.40
2019-04-20T02:24:04.054Z,6.13
2019-04-20T02:26:32.336Z,6.07
2019-04-20T02:29:28.728Z,6.43
2019-04-20T02:32:10.077Z,6.37
2019-04-20T02:42:49.734Z,6.40
2019-04-20T02:47:43.302Z,6.67
2019-04-20T02:50:15.131Z,6.40
2019-04-20T02:52:48.621Z,6.67
2019-04-20T02:57:47.264Z,6.50
2019-04-20T03:00:23.955Z,7.00
2019-04-20T03:02:31.287Z,6.80
2019-04-20T03:05:00.190Z,6.93
2019-04-20T03:07:31.499Z,6.60
2019-04-20T03:10:06.525Z,6.63
2019-04-20T03:12:55.066Z,6.80
2019-04-20T03:15:04.774Z,6.97
2019-04-20T03:17:49.338Z,6.53
2019-04-20T03:20:13.802Z,6.77
2019-04-20T03:23:11.688Z,6.50
2019-04-20T03:25:42.718Z,7.07
2019-04-20T03:28:16.754Z,6.67
2019-04-20T03:34:03.402Z,7.57
2019-04-20T03:36:13.099Z,7.57
2019-04-20T03:38:26.215Z,7.37
2019-04-20T03:40:54.271Z,7.40
2019-04-20T03:43:14.339Z,7.77
2019-04-20T03:45:51.727Z,7.30
2019-04-20T03:48:34.702Z,7.77
2019-04-20T03:51:09.023Z,7.23
2019-04-20T03:53:39.447Z,7.63
2019-04-20T03:56:28.570Z,7.33
2019-04-20T03:58:55.194Z,6.70
2019-04-20T04:02:17.139Z,6.53
2019-04-20T04:04:41.194Z,6.83
2019-04-20T04:06:53.047Z,6.87
2019-04-20T04:09:29.124Z,6.30
2019-04-20T04:12:04.891Z,6.23
2019-04-20T04:14:21.961Z,6.30
2019-04-20T04:16:57.014Z,6.27
2019-04-20T04:19:28.417Z,6.60
2019-04-20T04:22:11.493Z,6.57
2019-04-20T04:24:35.816Z,6.30
2019-04-20T04:27:10.545Z,6.10
2019-04-20T04:29:47.059Z,6.47
2019-04-20T04:32:37.522Z,6.53
2019-04-20T04:34:48.894Z,6.80
2019-04-20T04:37:20.395Z,6.30
2019-04-20T04:39:54.210Z,6.07
2019-04-20T04:42:28.154Z,6.73
2019-04-20T04:44:47.762Z,6.53
2019-04-20T04:47:10.439Z,6.57
2019-04-20T04:49:41.702Z,5.83
2019-04-20T04:52:15.357Z,6.63
2019-04-20T04:54:53.118Z,6.30
2019-04-20T04:57:13.674Z,6.97
2019-04-20T04:59:44.485Z,6.20
2019-04-20T05:02:15.866Z,6.70
2019-04-20T05:05:17.601Z,6.40
2019-04-20T05:07:43.524Z,6.53
2019-04-20T05:10:01.373Z,6.83
2019-04-20T05:12:33.504Z,7.03
2019-04-20T05:15:10.101Z,6.37
2019-04-20T05:17:53.250Z,6.47
2019-04-20T05:20:23.029Z,6.27
2019-04-20T05:23:04.895Z,6.60
2019-04-20T05:26:15.648Z,6.80
2019-04-20T05:28:37.151Z,6.67
2019-04-20T05:30:59.915Z,6.87
2019-04-20T05:33:42.524Z,6.23
2019-04-20T05:36:18.609Z,6.90
2019-04-20T05:38:54.386Z,6.53
2019-04-20T05:41:16.579Z,6.87
2019-04-20T05:44:12.830Z,6.77
2019-04-20T05:46:45.910Z,7.40
2019-04-20T05:49:23.336Z,7.57
2019-04-20T05:51:49.874Z,7.40
2019-04-20T05:54:25.547Z,7.23
2019-04-20T05:56:56.361Z,7.83
2019-04-20T05:59:24.261Z,9.27
2019-04-20T06:04:38.806Z,9.80
2019-04-20T06:07:04.009Z,9.37
2019-04-20T06:09:33.946Z,9.20
2019-04-20T06:12:16.494Z,9.27
2019-04-20T06:14:47.123Z,9.07
2019-04-20T06:17:31.781Z,8.67
2019-04-20T06:20:15.573Z,8.87
2019-04-20T06:22:52.126Z,8.00
2019-04-20T06:25:39.665Z,8.47
2019-04-20T06:28:00.950Z,9.20
2019-04-20T06:30:26.254Z,9.07
2019-04-20T06:33:52.369Z,8.50
2019-04-20T06:36:26.198Z,8.40
2019-04-20T06:43:47.703Z,9.10
2019-04-20T06:46:15.256Z,8.60
2019-04-20T06:49:05.729Z,8.90
2019-04-20T06:51:23.634Z,8.63
2019-04-20T06:53:53.985Z,8.80
2019-04-20T06:56:35.630Z,8.47
2019-04-20T06:59:12.558Z,8.90
2019-04-20T07:01:42.240Z,8.73
2019-04-20T07:04:31.754Z,9.40
2019-04-20T07:06:50.430Z,8.87
2019-04-20T07:09:21.767Z,9.60
2019-04-20T07:11:42.554Z,9.20
2019-04-20T07:14:02.939Z,8.60
2019-04-20T07:16:59.729Z,9.10
2019-04-20T07:19:40.327Z,8.70
2019-04-20T07:24:56.670Z,9.23
2019-04-20T07:27:22.886Z,9.30
2019-04-20T07:29:58.939Z,9.10
2019-04-20T07:32:20.392Z,8.73
2019-04-20T07:35:03.380Z,9.20
2019-04-20T07:38:03.199Z,11.33
2019-04-20T07:40:11.724Z,9.93
2019-04-20T07:42:49.161Z,8.93
2019-04-20T07:45:24.612Z,9.20
2019-04-20T07:47:46.332Z,9.07
2019-04-20T07:50:12.027Z,9.13
2019-04-20T07:52:38.713Z,8.77
2019-04-20T07:55:33.583Z,8.73
2019-04-20T07:57:46.006Z,9.20
2019-04-20T08:00:26.312Z,9.80
2019-04-20T08:03:18.432Z,9.07
2019-04-20T08:05:40.642Z,8.83
2019-04-20T08:08:15.417Z,9.40
2019-04-20T08:10:45.238Z,8.07
2019-04-20T08:13:29.077Z,9.30
2019-04-20T08:15:58.742Z,9.30
2019-04-20T08:18:28.007Z,8.40
2019-04-20T08:20:54.080Z,8.60
2019-04-20T08:23:30.228Z,8.90
2019-04-20T08:25:47.441Z,8.83
2019-04-20T08:28:29.177Z,8.50
2019-04-20T08:31:21.876Z,9.43
2019-04-20T08:34:12.150Z,8.60
2019-04-20T08:36:36.016Z,8.97
2019-04-20T08:41:32.432Z,8.60
2019-04-20T08:44:21.744Z,8.20
2019-04-20T08:46:47.543Z,8.10
2019-04-20T08:49:10.054Z,7.80
2019-04-20T08:51:52.069Z,8.40
2019-04-20T08:54:14.148Z,8.07
2019-04-20T08:56:33.762Z,7.90
2019-04-20T08:58:55.452Z,7.63
2019-04-20T09:01:30.331Z,8.07
2019-04-20T09:04:05.422Z,8.97
2019-04-20T09:06:39.988Z,9.10
2019-04-20T09:09:20.701Z,7.70
2019-04-20T09:11:50.548Z,8.00
2019-04-20T09:14:25.565Z,7.70
2019-04-20T09:17:25.313Z,10.57
2019-04-20T09:19:56.908Z,11.20
2019-04-20T09:22:47.591Z,7.40
2019-04-20T09:27:48.810Z,8.27
2019-04-20T09:30:25.713Z,7.67
2019-04-20T09:33:09.763Z,7.20
2019-04-20T09:35:37.315Z,7.00
2019-04-20T09:38:12.017Z,7.47
2019-04-20T09:40:45.959Z,9.20
2019-04-20T09:43:10.890Z,7.30
2019-04-20T09:45:48.020Z,6.97
2019-04-20T09:48:23.246Z,6.80
2019-04-20T09:51:05.017Z,7.07
2019-04-20T09:53:39.315Z,7.67
2019-04-20T09:56:17.624Z,7.50
2019-04-20T09:58:50.980Z,7.80
2019-04-20T10:01:13.257Z,6.80
2019-04-20T10:03:31.749Z,7.30
2019-04-20T10:06:01.395Z,6.30
2019-04-20T10:08:34.917Z,6.53
2019-04-20T10:11:03.418Z,5.90
2019-04-20T10:13:34.822Z,5.70
2019-04-20T10:16:07.935Z,6.33
2019-04-20T10:18:44.244Z,6.10
2019-04-20T10:21:10.164Z,6.30
2019-04-20T10:23:40.707Z,6.23
2019-04-20T10:26:10.201Z,5.90
2019-04-20T10:28:39.771Z,6.07
2019-04-20T10:31:10.681Z,6.60
2019-04-20T10:33:41.515Z,6.10
2019-04-20T10:36:21.911Z,5.70
2019-04-20T10:38:52.691Z,6.20
2019-04-20T10:41:35.920Z,8.27
2019-04-20T10:43:53.455Z,6.40
2019-04-20T10:46:23.144Z,6.57
2019-04-20T10:49:04.732Z,6.57
2019-04-20T10:51:35.606Z,6.30
2019-04-20T10:54:06.619Z,6.30
2019-04-20T10:56:37.320Z,6.00
2019-04-20T10:59:07.718Z,5.73
2019-04-20T11:01:37.942Z,5.70
2019-04-20T11:04:08.471Z,5.97
2019-04-20T11:06:40.596Z,5.47
2019-04-20T11:09:10.932Z,5.30
2019-04-20T11:11:40.944Z,5.40
2019-04-20T11:14:20.032Z,5.40
2019-04-20T11:16:44.619Z,5.40
2019-04-20T11:19:15.552Z,5.17
2019-04-20T11:21:46.305Z,4.80
2019-04-20T11:24:16.379Z,4.60
2019-04-20T11:26:46.855Z,4.63
2019-04-20T11:29:18.097Z,4.90
2019-04-20T11:31:51.560Z,4.53
2019-04-20T11:34:23.601Z,4.67
2019-04-20T11:36:52.938Z,5.00
2019-04-20T11:39:23.015Z,4.83
2019-04-20T11:41:53.871Z,4.60
2019-04-20T11:44:26.384Z,4.20
2019-04-20T11:46:54.752Z,4.40
2019-04-20T11:49:25.494Z,4.27
2019-04-20T11:51:55.375Z,4.70
2019-04-20T11:54:26.315Z,4.67
2019-04-20T11:56:57.305Z,4.40
2019-04-20T11:59:27.417Z,4.20
2019-04-20T12:02:21.493Z,4.00
2019-04-20T12:05:03.577Z,4.30
2019-04-20T12:07:19.501Z,4.50
2019-04-20T12:09:49.434Z,4.00
2019-04-20T12:12:30.057Z,4.30
2019-04-20T12:14:52.586Z,4.40
2019-04-20T12:17:23.681Z,4.50
2019-04-20T12:19:53.363Z,4.37
2019-04-20T12:22:24.027Z,4.30
2019-04-20T12:24:54.120Z,4.77
2019-04-20T12:27:24.884Z,4.80
2019-04-20T12:29:54.720Z,4.40
2019-04-20T12:32:29.521Z,4.40
2019-04-20T12:34:58.194Z,4.50
2019-04-20T12:37:29.265Z,4.30
2019-04-20T12:40:00.819Z,4.90
2019-04-20T12:42:30.868Z,5.30
2019-04-20T12:45:01.760Z,4.40
2019-04-20T12:47:32.116Z,4.30
2019-04-20T12:50:06.002Z,4.83
2019-04-20T12:52:36.810Z,4.20
2019-04-20T12:55:08.464Z,4.00
2019-04-20T12:57:38.600Z,3.63
2019-04-20T13:00:09.812Z,4.70
2019-04-20T13:02:41.100Z,4.20
2019-04-20T13:05:13.527Z,3.87
2019-04-20T13:07:49.706Z,3.87
2019-04-20T13:10:21.341Z,4.13
2019-04-20T13:13:10.621Z,3.87
2019-04-20T13:16:00.405Z,4.00
2019-04-20T13:18:43.490Z,3.77
2019-04-20T13:21:14.069Z,3.87
2019-04-20T13:23:44.923Z,4.10
2019-04-20T13:26:15.659Z,4.50
2019-04-20T13:28:46.750Z,4.53
2019-04-20T13:31:17.681Z,4.63
2019-04-20T13:33:47.640Z,4.20
2019-04-20T13:36:17.459Z,4.17
2019-04-20T13:38:48.009Z,3.90
2019-04-20T13:41:17.901Z,4.27
2019-04-20T13:43:48.101Z,4.40
2019-04-20T13:46:18.784Z,5.03
2019-04-20T13:48:49.155Z,4.43
2019-04-20T13:51:18.909Z,4.40
2019-04-20T13:53:50.768Z,4.40
2019-04-20T13:56:21.965Z,4.40
2019-04-20T13:59:05.896Z,4.43
2019-04-20T14:01:46.652Z,4.10
2019-04-20T14:04:18.928Z,4.63
2019-04-20T14:06:51.172Z,4.00
2019-04-20T14:09:21.388Z,4.10
2019-04-20T14:11:51.711Z,4.57
2019-04-20T14:14:21.480Z,3.70
2019-04-20T14:16:51.151Z,3.80
2019-04-20T14:19:21.083Z,3.90
2019-04-20T14:21:50.604Z,4.00
2019-04-20T14:24:21.332Z,4.00
2019-04-20T14:26:52.872Z,3.77
2019-04-20T14:29:23.092Z,3.97
2019-04-20T14:31:52.953Z,4.20
2019-04-20T14:34:22.749Z,3.80
2019-04-20T14:36:52.961Z,3.70
2019-04-20T14:39:22.566Z,3.50
2019-04-20T14:41:52.092Z,3.50
2019-04-20T14:44:21.669Z,3.40
2019-04-20T14:46:51.666Z,3.37
2019-04-20T14:49:21.319Z,3.20
2019-04-20T14:51:50.876Z,3.30
2019-04-20T14:54:21.350Z,3.33
2019-04-20T14:56:51.677Z,3.20
2019-04-20T14:59:43.486Z,3.10
2019-04-20T15:02:19.347Z,3.13
2019-04-20T15:04:50.321Z,3.20
2019-04-20T15:07:20.484Z,3.10
2019-04-20T15:09:51.013Z,3.10
2019-04-20T15:12:21.235Z,3.33
2019-04-20T15:14:50.863Z,3.77
2019-04-20T15:17:43.605Z,3.10
2019-04-20T15:20:35.367Z,2.97
2019-04-20T15:23:13.311Z,2.70
2019-04-20T15:25:44.478Z,2.70
2019-04-20T15:28:14.541Z,2.60
2019-04-20T15:30:44.497Z,2.70
2019-04-20T15:33:14.907Z,2.40
2019-04-20T15:35:44.448Z,2.53
2019-04-20T15:38:15.271Z,2.40
2019-04-20T15:40:44.935Z,2.93
2019-04-20T15:43:19.437Z,2.80
2019-04-20T15:45:47.523Z,2.47
2019-04-20T15:48:17.203Z,2.70
2019-04-20T15:50:47.807Z,2.20
2019-04-20T15:53:17.600Z,2.33
2019-04-20T15:55:49.197Z,2.10
2019-04-20T15:58:18.524Z,2.10
2019-04-20T16:00:48.117Z,1.90
2019-04-20T16:03:37.354Z,2.00
2019-04-20T16:06:09.418Z,2.20
2019-04-20T16:08:40.190Z,2.20
2019-04-20T16:11:11.079Z,2.30
2019-04-20T16:13:45.746Z,1.90
2019-04-20T16:16:12.299Z,2.20
2019-04-20T16:18:43.242Z,2.00
2019-04-20T16:21:19.642Z,2.40
2019-04-20T16:23:52.566Z,2.80
2019-04-20T16:26:42.053Z,2.90
2019-04-20T16:29:11.657Z,2.97
2019-04-20T16:31:43.947Z,2.40
2019-04-20T16:34:13.587Z,7.20
2019-04-20T16:36:44.492Z,2.60
2019-04-20T16:39:14.744Z,1.90
2019-04-20T16:41:44.501Z,2.53
2019-04-20T16:44:15.529Z,2.33
2019-04-20T16:46:45.893Z,2.90
2019-04-20T16:49:16.879Z,1.80
2019-04-20T16:51:47.275Z,2.10
2019-04-20T16:54:17.605Z,1.73
2019-04-20T16:56:48.555Z,2.10
2019-04-20T16:59:24.631Z,2.13
2019-04-20T17:01:56.066Z,1.63
2019-04-20T17:04:26.939Z,1.80
2019-04-20T17:07:20.761Z,1.80
2019-04-20T17:09:51.824Z,1.70
2019-04-20T17:12:24.216Z,2.10
2019-04-20T17:14:58.460Z,2.27
2019-04-20T17:17:29.473Z,2.57
2019-04-20T17:20:01.877Z,2.30
2019-04-20T17:22:31.720Z,3.03
2019-04-20T17:25:01.850Z,3.07
2019-04-20T17:27:49.122Z,3.30
2019-04-20T17:30:55.112Z,2.80
2019-04-20T17:33:58.378Z,1.93
2019-04-20T17:36:24.618Z,2.80
2019-04-20T17:38:54.409Z,2.37
2019-04-20T17:41:46.990Z,2.90
2019-04-20T17:44:09.551Z,5.27
2019-04-20T17:46:40.483Z,3.53
2019-04-20T17:49:13.310Z,3.10
2019-04-20T17:51:53.523Z,4.30
2019-04-20T17:54:22.494Z,5.33
2019-04-20T17:56:52.334Z,6.23
2019-04-20T17:59:22.336Z,6.50
2019-04-20T18:02:21.730Z,5.13
2019-04-20T18:05:22.980Z,3.30
2019-04-20T18:07:50.709Z,3.40
2019-04-20T18:10:26.161Z,3.90
2019-04-20T18:12:44.853Z,3.00
2019-04-20T18:15:29.522Z,3.53
2019-04-20T18:18:23.979Z,9.50
2019-04-20T18:20:59.219Z,12.40
2019-04-20T18:23:36.325Z,18.70
2019-04-20T18:26:24.149Z,10.33
2019-04-20T18:28:55.737Z,17.00
2019-04-20T18:31:23.650Z,7.70
2019-04-20T18:34:00.675Z,6.27
2019-04-20T18:36:35.925Z,5.00
2019-04-20T18:39:04.971Z,6.60
2019-04-20T18:41:38.517Z,6.57
2019-04-20T18:44:04.422Z,6.60
2019-04-20T18:47:00.258Z,7.00
2019-04-20T18:49:19.905Z,4.47
2019-04-20T18:51:37.698Z,3.97
2019-04-20T18:54:16.211Z,3.10
2019-04-20T18:56:46.812Z,2.80
2019-04-20T18:59:11.525Z,2.67
2019-04-20T19:01:43.153Z,2.73
2019-04-20T19:04:12.274Z,3.03
2019-04-20T19:06:41.821Z,2.30
2019-04-20T19:09:16.789Z,3.00
2019-04-20T19:11:49.562Z,2.40
2019-04-20T19:14:37.140Z,3.03
2019-04-20T19:17:20.997Z,4.20
2019-04-20T19:19:53.057Z,7.13
2019-04-20T19:22:21.726Z,9.93
2019-04-20T19:24:51.800Z,15.77
2019-04-20T19:27:30.244Z,10.47
2019-04-20T19:30:01.476Z,4.83
2019-04-20T19:32:39.835Z,3.17
2019-04-20T19:35:04.340Z,3.40
2019-04-20T19:37:34.502Z,2.50
2019-04-20T19:40:08.152Z,2.60
2019-04-20T19:42:44.328Z,2.30
2019-04-20T19:45:26.187Z,2.40
2019-04-20T19:47:51.303Z,2.20
2019-04-20T19:50:31.214Z,2.23
2019-04-20T19:53:06.185Z,2.70
2019-04-20T19:55:25.597Z,3.17
2019-04-20T19:57:58.836Z,3.30
2019-04-20T20:00:16.917Z,2.73
2019-04-20T20:02:47.776Z,2.57
2019-04-20T20:05:19.207Z,2.27
2019-04-20T20:07:52.125Z,2.33
2019-04-20T20:10:20.842Z,2.43
2019-04-20T20:12:56.007Z,2.27
2019-04-20T20:15:27.860Z,2.53
2019-04-20T20:18:10.972Z,2.20
2019-04-20T20:20:50.051Z,2.37
2019-04-20T20:23:00.118Z,2.50
2019-04-20T20:25:35.600Z,2.07
2019-04-20T20:28:14.570Z,2.33
2019-04-20T20:30:48.220Z,2.17
2019-04-20T20:33:23.808Z,2.40
2019-04-20T20:38:19.141Z,2.50
2019-04-20T20:40:54.552Z,2.10
2019-04-20T20:43:23.152Z,2.23
2019-04-20T20:46:01.271Z,2.23
2019-04-20T20:48:34.029Z,2.33
2019-04-20T20:51:11.296Z,2.20
2019-04-20T20:53:36.329Z,2.20
2019-04-20T20:56:03.499Z,2.57
2019-04-20T20:58:40.653Z,2.27
2019-04-20T21:01:04.359Z,2.60
2019-04-20T21:03:31.226Z,2.37
2019-04-20T21:05:57.887Z,2.50
2019-04-20T21:08:27.430Z,4.70
2019-04-20T21:10:57.664Z,65.93
2019-04-20T21:13:34.523Z,33.87
2019-04-20T21:16:03.476Z,8.93
2019-04-20T21:18:48.995Z,4.60
2019-04-20T21:21:16.884Z,3.47
2019-04-20T21:23:45.783Z,3.03
2019-04-20T21:26:17.816Z,3.60
2019-04-20T21:28:42.157Z,4.23
2019-04-20T21:31:18.068Z,3.50
2019-04-20T21:33:45.316Z,2.80
2019-04-20T21:36:20.727Z,2.53
2019-04-20T21:38:46.876Z,2.70
2019-04-20T21:41:20.204Z,2.50
2019-04-20T21:43:49.717Z,2.20
2019-04-20T21:46:20.673Z,2.10
2019-04-20T21:49:01.660Z,2.30
2019-04-20T21:51:35.870Z,2.40
2019-04-20T21:53:56.427Z,2.20
2019-04-20T21:56:24.194Z,2.00
2019-04-20T21:58:59.825Z,2.17
2019-04-20T22:01:33.645Z,2.07
2019-04-20T22:03:56.689Z,2.30
2019-04-20T22:06:26.666Z,2.10
2019-04-20T22:09:00.082Z,2.27
2019-04-20T22:11:27.562Z,2.43
2019-04-20T22:13:57.514Z,2.50
2019-04-20T22:16:35.305Z,2.60
2019-04-20T22:19:15.998Z,2.03
2019-04-20T22:21:45.073Z,2.40
2019-04-20T22:24:14.007Z,2.30
2019-04-20T22:26:45.627Z,2.40
2019-04-20T22:29:03.397Z,2.20
2019-04-20T22:31:38.193Z,2.23
2019-04-20T22:34:13.893Z,2.00
2019-04-20T22:36:43.344Z,2.13
2019-04-20T22:39:15.659Z,2.20
2019-04-20T22:42:03.412Z,2.40
2019-04-20T22:44:32.376Z,2.20
2019-04-20T22:47:05.474Z,2.20
2019-04-20T22:49:48.634Z,2.10
2019-04-20T22:52:24.111Z,2.40
2019-04-20T22:54:48.913Z,2.50
2019-04-20T22:57:19.296Z,2.43
2019-04-20T22:59:52.329Z,2.27
2019-04-20T23:02:13.337Z,2.37
2019-04-20T23:04:42.959Z,2.37
2019-04-20T23:07:12.877Z,2.33
2019-04-20T23:09:48.663Z,2.63
2019-04-20T23:12:18.866Z,2.30
2019-04-20T23:14:46.583Z,2.23
2019-04-20T23:17:18.400Z,2.40
2019-04-20T23:19:52.881Z,2.77
2019-04-20T23:22:27.532Z,2.57
2019-04-20T23:24:55.285Z,2.30
2019-04-20T23:27:31.248Z,2.47
2019-04-20T23:29:58.341Z,2.50
2019-04-20T23:32:30.073Z,2.37
2019-04-20T23:35:04.928Z,2.60
2019-04-20T23:37:35.504Z,2.60
2019-04-20T23:40:06.425Z,2.87
2019-04-20T23:42:44.529Z,2.60
2019-04-20T23:45:52.834Z,2.60
2019-04-20T23:48:32.372Z,2.63
2019-04-20T23:51:24.818Z,2.50
2019-04-20T23:53:44.628Z,2.67
2019-04-20T23:56:02.124Z,2.40
2019-04-20T23:58:39.924Z,2.77
